Time;durP1;ratioP1;P1;durP2;ratioP2;P2;SDS_P1;SDS_P2;PMS_P1;PMS_P2;Temp;Humidity;BMP_temperature;BMP_pressure;BME280_temperature;BME280_humidity;BME280_pressure;Samples;Min_cycle;Max_cycle;Signal;HPM_P1;HPM_P2
2023/06/06 00:01:14;;;;;;;1.42;1.00;;;;;;;;;;5056094;28;20067;-60
2023/06/06 00:03:42;;;;;;;2.33;1.20;;;;;;;;;;5056529;28;20063;-60
2023/06/06 00:06:08;;;;;;;2.72;1.15;;;;;;;;;;5056483;28;20041;-60
2023/06/06 00:08:35;;;;;;;2.45;1.50;;;;;;;;;;5055610;28;20057;-60
2023/06/06 00:11:01;;;;;;;2.05;1.35;;;;;;;;;;5056128;28;20074;-60
2023/06/06 00:13:27;;;;;;;1.83;1.20;;;;;;;;;;5055345;28;20025;-61
2023/06/06 00:15:57;;;;;;;3.45;1.13;;;;;;;;;;5056446;28;20021;-60
2023/06/06 00:18:25;;;;;;;;;;;;;;;;;;5057076;28;20032;-60
2023/06/06 00:20:51;;;;;;;4.15;1.10;;;;;;;;;;5056284;28;19912;-60
2023/06/06 00:23:17;;;;;;;3.10;1.50;;;;;;;;;;5055430;28;20029;-60
2023/06/06 00:25:43;;;;;;;1.60;1.10;;;;;;;;;;5056447;28;20080;-60
2023/06/06 00:28:09;;;;;;;3.00;1.42;;;;;;;;;;5055641;28;20021;-60
2023/06/06 00:30:35;;;;;;;2.40;1.40;;;;;;;;;;5055278;28;20112;-60
2023/06/06 00:33:01;;;;;;;2.03;1.30;;;;;;;;;;5055534;28;20025;-60
2023/06/06 00:35:27;;;;;;;2.10;1.23;;;;;;;;;;5056191;28;20422;-60
2023/06/06 00:37:53;;;;;;;2.65;1.45;;;;;;;;;;5055744;28;20359;-60
2023/06/06 00:40:19;;;;;;;2.40;1.17;;;;;;;;;;5055682;28;20063;-60
2023/06/06 00:42:45;;;;;;;2.78;1.58;;;;;;;;;;5055423;28;20022;-60
2023/06/06 00:45:11;;;;;;;2.45;1.50;;;;;;;;;;5054873;28;20486;-60
2023/06/06 00:47:37;;;;;;;2.70;1.65;;;;;;;;;;5055604;28;20060;-60
2023/06/06 00:50:03;;;;;;;1.85;1.23;;;;;;;;;;5055191;28;20028;-60
2023/06/06 00:52:30;;;;;;;2.33;1.40;;;;;;;;;;5055133;28;20064;-60
2023/06/06 00:54:57;;;;;;;2.20;1.50;;;;;;;;;;5055873;28;20032;-60
2023/06/06 00:57:23;;;;;;;2.28;1.25;;;;;;;;;;5055563;28;20021;-60
2023/06/06 00:59:50;;;;;;;2.15;1.17;;;;;;;;;;5055484;28;20056;-60
2023/06/06 01:02:19;;;;;;;2.00;1.30;;;;;;;;;;5054847;28;20034;-60
2023/06/06 01:04:45;;;;;;;1.95;1.20;;;;;;;;;;5054818;28;20087;-60
2023/06/06 01:07:17;;;;;;;1.83;1.10;;;;;;;;;;5055126;28;20459;-60
2023/06/06 01:09:43;;;;;;;2.50;1.48;;;;;;;;;;5055366;28;20029;-60
2023/06/06 01:12:29;;;;;;;2.88;1.58;;;;;;;;;;5055016;28;20029;-60
2023/06/06 01:15:01;;;;;;;3.90;2.00;;;;;;;;;;5055110;28;20103;-60
2023/06/06 01:17:27;;;;;;;2.83;1.63;;;;;;;;;;5054898;28;20104;-60
2023/06/06 01:19:57;;;;;;;2.03;1.17;;;;;;;;;;5053390;28;20479;-60
2023/06/06 01:22:27;;;;;;;2.03;1.20;;;;;;;;;;5054293;28;20032;-60
2023/06/06 01:24:53;;;;;;;2.50;1.70;;;;;;;;;;5054426;28;20037;-60
2023/06/06 01:27:21;;;;;;;2.17;1.33;;;;;;;;;;5054753;28;20036;-60
2023/06/06 01:29:47;;;;;;;2.13;1.42;;;;;;;;;;5054623;28;20058;-60
2023/06/06 01:32:22;;;;;;;2.58;1.70;;;;;;;;;;5055127;28;20032;-60
2023/06/06 01:34:55;;;;;;;2.50;1.48;;;;;;;;;;5054643;28;20025;-60
2023/06/06 01:37:31;;;;;;;2.63;1.45;;;;;;;;;;5054194;28;20159;-60
2023/06/06 01:39:57;;;;;;;2.88;1.83;;;;;;;;;;5054579;28;20056;-60
2023/06/06 01:42:23;;;;;;;2.65;1.75;;;;;;;;;;5054605;28;20029;-60
2023/06/06 01:44:51;;;;;;;2.85;1.70;;;;;;;;;;5054675;28;20029;-60
2023/06/06 01:47:17;;;;;;;3.22;2.30;;;;;;;;;;5053751;28;20043;-60
2023/06/06 01:49:44;;;;;;;1.95;1.35;;;;;;;;;;5054136;28;20025;-60
2023/06/06 01:52:11;;;;;;;3.67;1.75;;;;;;;;;;5054099;28;20097;-60
2023/06/06 01:54:40;;;;;;;2.78;1.90;;;;;;;;;;5054503;28;20045;-60
2023/06/06 01:57:07;;;;;;;2.10;1.30;;;;;;;;;;5054306;28;20497;-60
2023/06/06 01:59:33;;;;;;;3.25;1.55;;;;;;;;;;5053876;28;20124;-60
2023/06/06 02:02:00;;;;;;;3.58;2.20;;;;;;;;;;5053878;28;20025;-60
2023/06/06 02:04:26;;;;;;;2.08;1.20;;;;;;;;;;5053688;28;20037;-60
2023/06/06 02:06:52;;;;;;;3.22;1.73;;;;;;;;;;5053584;28;20032;-60
2023/06/06 02:09:18;;;;;;;2.45;1.60;;;;;;;;;;5053482;28;20025;-60
2023/06/06 02:11:44;;;;;;;2.67;1.80;;;;;;;;;;5053830;28;20108;-60
2023/06/06 02:14:15;;;;;;;2.85;1.90;;;;;;;;;;5053599;28;20497;-60
2023/06/06 02:16:41;;;;;;;2.40;1.50;;;;;;;;;;5054264;28;20033;-60
2023/06/06 02:19:07;;;;;;;2.28;1.58;;;;;;;;;;5053980;28;20474;-60
2023/06/06 02:21:33;;;;;;;2.92;1.92;;;;;;;;;;5053701;28;20032;-60
2023/06/06 02:23:59;;;;;;;3.10;2.17;;;;;;;;;;5054015;28;20036;-60
2023/06/06 02:26:25;;;;;;;3.20;2.05;;;;;;;;;;5053625;28;20025;-60
2023/06/06 02:28:51;;;;;;;2.50;1.50;;;;;;;;;;5054102;28;20024;-60
2023/06/06 02:31:17;;;;;;;3.88;1.90;;;;;;;;;;5054598;28;20109;-60
2023/06/06 02:33:43;;;;;;;4.18;2.40;;;;;;;;;;5058544;28;20439;-60
2023/06/06 02:36:10;;;;;;;2.53;2.03;;;;;;;;;;5057608;28;20027;-60
2023/06/06 02:38:36;;;;;;;3.13;2.13;;;;;;;;;;5057582;28;20025;-60
2023/06/06 02:41:02;;;;;;;2.53;1.85;;;;;;;;;;5057895;28;20063;-60
2023/06/06 02:43:28;;;;;;;3.80;2.20;;;;;;;;;;5058020;28;20108;-60
2023/06/06 02:45:55;;;;;;;3.67;1.75;;;;;;;;;;5057556;28;20421;-60
2023/06/06 02:48:21;;;;;;;2.50;1.83;;;;;;;;;;5057329;28;20056;-60
2023/06/06 02:50:47;;;;;;;2.63;2.00;;;;;;;;;;5057756;28;20075;-60
2023/06/06 02:53:15;;;;;;;2.75;2.17;;;;;;;;;;5057315;28;20025;-60
2023/06/06 02:55:41;;;;;;;2.50;2.00;;;;;;;;;;5057323;28;20482;-60
2023/06/06 02:58:24;;;;;;;2.88;2.33;;;;;;;;;;5057904;28;20029;-60
2023/06/06 03:00:51;;;;;;;4.07;1.95;;;;;;;;;;5057825;28;20021;-60
2023/06/06 03:03:17;;;;;;;3.50;2.47;;;;;;;;;;5057017;28;20032;-60
2023/06/06 03:05:43;;;;;;;2.78;1.88;;;;;;;;;;5057103;28;20033;-60
2023/06/06 03:08:08;;;;;;;3.45;2.10;;;;;;;;;;5057354;28;20017;-60
2023/06/06 03:10:34;;;;;;;3.47;2.40;;;;;;;;;;5057138;28;20052;-60
2023/06/06 03:13:00;;;;;;;4.10;2.20;;;;;;;;;;5057077;28;20095;-60
2023/06/06 03:15:29;;;;;;;2.53;1.80;;;;;;;;;;5057618;28;20059;-60
2023/06/06 03:17:55;;;;;;;2.88;1.92;;;;;;;;;;5057261;28;20388;-60
2023/06/06 03:20:21;;;;;;;3.72;2.58;;;;;;;;;;5057420;28;20029;-60
2023/06/06 03:22:47;;;;;;;4.00;2.30;;;;;;;;;;5056785;28;20032;-60
2023/06/06 03:25:13;;;;;;;3.90;2.42;;;;;;;;;;5056761;28;20375;-60
2023/06/06 03:27:41;;;;;;;3.50;2.67;;;;;;;;;;5057135;28;20070;-60
2023/06/06 03:30:08;;;;;;;4.35;2.97;;;;;;;;;;5057467;28;20060;-60
2023/06/06 03:32:34;;;;;;;4.38;3.00;;;;;;;;;;5056677;28;20368;-60
2023/06/06 03:35:00;;;;;;;3.92;2.58;;;;;;;;;;5057510;28;20347;-60
2023/06/06 03:37:26;;;;;;;4.13;3.08;;;;;;;;;;5056777;28;20145;-60
2023/06/06 03:39:52;;;;;;;4.05;2.60;;;;;;;;;;5056687;28;20406;-60
2023/06/06 03:42:18;;;;;;;4.47;2.97;;;;;;;;;;5056410;28;20052;-60
2023/06/06 03:44:44;;;;;;;6.13;3.10;;;;;;;;;;5055761;28;20064;-60
2023/06/06 03:47:10;;;;;;;4.57;2.65;;;;;;;;;;5056852;28;20024;-60
2023/06/06 03:49:37;;;;;;;2.83;2.13;;;;;;;;;;5056424;28;20025;-60
2023/06/06 03:52:03;;;;;;;3.10;2.60;;;;;;;;;;5056285;28;20025;-60
2023/06/06 03:54:29;;;;;;;3.05;2.05;;;;;;;;;;5056883;28;20028;-60
2023/06/06 03:56:56;;;;;;;3.45;2.28;;;;;;;;;;5056312;28;20469;-60
2023/06/06 03:59:22;;;;;;;3.38;2.22;;;;;;;;;;5056255;28;20391;-60
2023/06/06 04:01:48;;;;;;;4.50;2.70;;;;;;;;;;5056152;28;20025;-60
2023/06/06 04:04:16;;;;;;;3.83;2.42;;;;;;;;;;5056793;28;20036;-60
2023/06/06 04:06:41;;;;;;;3.85;2.22;;;;;;;;;;5056174;28;20025;-60
2023/06/06 04:09:10;;;;;;;3.38;2.28;;;;;;;;;;5056043;28;20036;-60
2023/06/06 04:11:36;;;;;;;4.03;2.20;;;;;;;;;;5056543;28;20530;-60
2023/06/06 04:14:02;;;;;;;3.25;2.65;;;;;;;;;;5055951;28;20073;-60
2023/06/06 04:16:27;;;;;;;4.40;2.67;;;;;;;;;;5056211;28;20024;-60
2023/06/06 04:18:53;;;;;;;2.80;1.90;;;;;;;;;;5055575;28;20017;-60
2023/06/06 04:21:20;;;;;;;3.42;2.58;;;;;;;;;;5055772;28;20031;-60
2023/06/06 04:23:46;;;;;;;3.67;2.13;;;;;;;;;;5056306;28;20025;-60
2023/06/06 04:26:22;;;;;;;3.25;1.88;;;;;;;;;;5055692;28;20029;-60
2023/06/06 04:28:49;;;;;;;3.13;2.28;;;;;;;;;;5055944;28;20017;-60
2023/06/06 04:31:15;;;;;;;4.95;2.17;;;;;;;;;;5056152;28;20410;-60
2023/06/06 04:33:42;;;;;;;3.17;2.13;;;;;;;;;;5056149;28;20027;-60
2023/06/06 04:36:08;;;;;;;5.05;1.80;;;;;;;;;;5056189;28;20083;-60
2023/06/06 04:38:37;;;;;;;3.53;2.08;;;;;;;;;;5055786;28;20112;-60
2023/06/06 04:41:04;;;;;;;4.25;2.58;;;;;;;;;;5055497;28;20021;-60
2023/06/06 04:43:30;;;;;;;2.65;2.08;;;;;;;;;;5055468;28;20025;-60
2023/06/06 04:46:01;;;;;;;5.03;2.70;;;;;;;;;;5055925;28;20057;-60
2023/06/06 04:48:28;;;;;;;3.67;2.60;;;;;;;;;;5055662;28;20505;-60
2023/06/06 04:50:55;;;;;;;3.25;2.47;;;;;;;;;;5056118;28;20029;-60
2023/06/06 04:53:21;;;;;;;3.83;2.15;;;;;;;;;;5055766;28;20025;-60
2023/06/06 04:55:47;;;;;;;3.47;2.60;;;;;;;;;;5055590;28;20048;-60
2023/06/06 04:58:14;;;;;;;2.95;2.40;;;;;;;;;;5055686;28;20029;-60
2023/06/06 05:00:42;;;;;;;3.63;2.40;;;;;;;;;;5055064;28;20025;-60
2023/06/06 05:03:08;;;;;;;4.03;2.35;;;;;;;;;;5054966;28;20025;-60
2023/06/06 05:05:34;;;;;;;4.72;2.78;;;;;;;;;;5054924;28;20083;-60
2023/06/06 05:08:01;;;;;;;3.55;2.70;;;;;;;;;;5055619;28;20029;-60
2023/06/06 05:10:27;;;;;;;3.00;2.13;;;;;;;;;;5055683;28;20094;-60
2023/06/06 05:12:52;;;;;;;3.45;2.45;;;;;;;;;;5054752;28;20017;-60
2023/06/06 05:15:18;;;;;;;3.38;2.60;;;;;;;;;;5055790;28;20052;-60
2023/06/06 05:17:57;;;;;;;3.10;2.45;;;;;;;;;;5054517;28;20044;-60
2023/06/06 05:20:23;;;;;;;5.32;3.03;;;;;;;;;;5054675;28;20104;-60
2023/06/06 05:22:49;;;;;;;2.95;2.10;;;;;;;;;;5054609;28;20017;-60
2023/06/06 05:25:16;;;;;;;4.10;3.10;;;;;;;;;;5055193;28;20037;-60
2023/06/06 05:27:42;;;;;;;5.70;2.92;;;;;;;;;;5054616;28;20028;-60
2023/06/06 05:30:08;;;;;;;4.70;2.67;;;;;;;;;;5054256;28;20021;-60
2023/06/06 05:32:34;;;;;;;3.78;2.72;;;;;;;;;;5054781;28;20177;-60
2023/06/06 05:35:01;;;;;;;3.40;2.80;;;;;;;;;;5054905;28;20025;-60
2023/06/06 05:37:30;;;;;;;3.05;2.40;;;;;;;;;;5054997;28;20336;-60
2023/06/06 05:39:56;;;;;;;3.85;2.60;;;;;;;;;;5054667;28;20103;-60
2023/06/06 05:42:22;;;;;;;3.97;3.05;;;;;;;;;;5054350;28;20056;-60
2023/06/06 05:44:51;;;;;;;4.15;2.88;;;;;;;;;;5054355;28;20029;-60
2023/06/06 05:47:17;;;;;;;2.97;2.28;;;;;;;;;;5054376;28;20028;-60
2023/06/06 05:49:43;;;;;;;3.80;3.00;;;;;;;;;;5053874;28;20027;-60
2023/06/06 05:52:09;;;;;;;2.65;2.30;;;;;;;;;;5054416;28;20024;-60
2023/06/06 05:54:35;;;;;;;3.97;2.70;;;;;;;;;;5054048;28;20044;-60
2023/06/06 05:57:01;;;;;;;4.07;3.35;;;;;;;;;;5054069;28;20025;-60
2023/06/06 05:59:27;;;;;;;4.00;3.10;;;;;;;;;;5053889;28;20063;-60
2023/06/06 06:01:53;;;;;;;3.90;2.63;;;;;;;;;;5053834;28;20025;-60
2023/06/06 06:04:19;;;;;;;3.85;2.67;;;;;;;;;;5053862;28;20497;-60
2023/06/06 06:06:49;;;;;;;3.67;2.67;;;;;;;;;;5053887;28;20056;-60
2023/06/06 06:09:19;;;;;;;4.05;2.85;;;;;;;;;;5054589;28;20029;-60
2023/06/06 06:11:45;;;;;;;4.38;2.63;;;;;;;;;;5054104;28;20028;-60
2023/06/06 06:14:11;;;;;;;3.80;2.80;;;;;;;;;;5053709;28;20056;-60
2023/06/06 06:16:37;;;;;;;5.53;3.17;;;;;;;;;;5053699;28;20057;-60
2023/06/06 06:19:04;;;;;;;3.22;2.40;;;;;;;;;;5053795;28;20060;-61
2023/06/06 06:21:30;;;;;;;2.70;1.90;;;;;;;;;;5053704;28;20075;-59
2023/06/06 06:23:56;;;;;;;3.83;2.45;;;;;;;;;;5054254;28;20032;-59
2023/06/06 06:26:22;;;;;;;3.10;2.50;;;;;;;;;;5054270;28;20033;-59
2023/06/06 06:28:53;;;;;;;2.83;2.22;;;;;;;;;;5053634;28;20024;-59
2023/06/06 06:31:19;;;;;;;3.28;2.65;;;;;;;;;;5053610;28;20022;-59
2023/06/06 06:33:45;;;;;;;3.72;2.22;;;;;;;;;;5053534;28;20446;-59
2023/06/06 06:36:11;;;;;;;3.25;2.35;;;;;;;;;;5054231;28;20108;-58
2023/06/06 06:38:37;;;;;;;3.47;2.65;;;;;;;;;;5053946;28;20470;-59
2023/06/06 06:41:03;;;;;;;3.80;2.92;;;;;;;;;;5053546;28;20469;-59
2023/06/06 06:43:29;;;;;;;4.93;2.50;;;;;;;;;;5053427;28;20191;-59
2023/06/06 06:45:55;;;;;;;3.10;2.47;;;;;;;;;;5053736;28;20032;-59
2023/06/06 06:48:21;;;;;;;5.10;2.63;;;;;;;;;;5053783;28;20025;-59
2023/06/06 06:50:47;;;;;;;2.70;2.17;;;;;;;;;;5053412;28;20017;-59
2023/06/06 06:53:13;;;;;;;4.05;2.70;;;;;;;;;;5053537;28;20021;-59
2023/06/06 06:55:41;;;;;;;5.28;2.78;;;;;;;;;;5053119;28;20025;-60
2023/06/06 06:58:07;;;;;;;4.43;3.17;;;;;;;;;;5054216;28;20044;-59
2023/06/06 07:00:33;;;;;;;2.53;2.15;;;;;;;;;;5053368;28;20074;-60
2023/06/06 07:02:59;;;;;;;4.35;2.80;;;;;;;;;;5052983;28;20025;-60
2023/06/06 07:05:26;;;;;;;6.68;2.38;;;;;;;;;;5053991;28;20363;-60
2023/06/06 07:07:53;;;;;;;4.57;2.55;;;;;;;;;;5053827;28;20033;-60
2023/06/06 07:10:20;;;;;;;3.75;2.67;;;;;;;;;;5053781;28;20021;-60
2023/06/06 07:12:47;;;;;;;5.05;2.75;;;;;;;;;;5053509;28;20112;-60
2023/06/06 07:15:13;;;;;;;5.10;3.05;;;;;;;;;;5053233;28;20090;-60
2023/06/06 07:17:42;;;;;;;3.90;2.53;;;;;;;;;;5054268;28;20116;-60
2023/06/06 07:20:08;;;;;;;4.47;2.30;;;;;;;;;;5057138;28;20025;-60
2023/06/06 07:22:35;;;;;;;2.40;1.75;;;;;;;;;;5057479;28;20025;-60
2023/06/06 07:25:02;;;;;;;3.30;2.58;;;;;;;;;;5057239;28;20044;-60
2023/06/06 07:27:29;;;;;;;3.67;2.00;;;;;;;;;;5057691;28;20017;-60
2023/06/06 07:29:55;;;;;;;2.88;2.30;;;;;;;;;;5056767;28;20029;-60
2023/06/06 07:32:21;;;;;;;4.05;2.60;;;;;;;;;;5056758;28;20032;-60
2023/06/06 07:34:47;;;;;;;3.53;2.47;;;;;;;;;;5056582;28;20427;-60
2023/06/06 07:37:12;;;;;;;3.83;2.63;;;;;;;;;;5056820;28;20031;-60
2023/06/06 07:39:40;;;;;;;3.60;2.65;;;;;;;;;;5056269;28;20020;-60
2023/06/06 07:42:07;;;;;;;3.40;2.80;;;;;;;;;;5056208;28;20021;-60
2023/06/06 07:44:33;;;;;;;3.17;2.47;;;;;;;;;;5056372;28;20032;-61
2023/06/06 07:46:59;;;;;;;3.92;2.78;;;;;;;;;;5056488;28;20021;-61
2023/06/06 07:49:25;;;;;;;2.95;2.30;;;;;;;;;;5056112;28;20065;-61
2023/06/06 07:51:51;;;;;;;3.25;1.98;;;;;;;;;;5056367;28;20025;-61
2023/06/06 07:54:17;;;;;;;2.65;1.92;;;;;;;;;;5056805;28;20021;-61
2023/06/06 07:56:46;;;;;;;2.63;1.95;;;;;;;;;;5056964;28;20387;-61
2023/06/06 07:59:13;;;;;;;3.67;2.15;;;;;;;;;;5056229;28;20098;-59
2023/06/06 08:01:39;;;;;;;3.42;2.47;;;;;;;;;;5056298;28;20451;-59
2023/06/06 08:04:07;;;;;;;4.20;2.67;;;;;;;;;;5056662;28;20116;-60
2023/06/06 08:06:36;;;;;;;2.92;2.13;;;;;;;;;;5056427;28;20033;-59
2023/06/06 08:09:05;;;;;;;3.38;2.13;;;;;;;;;;5056093;28;20021;-59
2023/06/06 08:11:32;;;;;;;3.63;2.38;;;;;;;;;;5055885;28;20029;-59
2023/06/06 08:13:58;;;;;;;3.58;2.45;;;;;;;;;;5055543;28;20040;-62
2023/06/06 08:16:24;;;;;;;3.60;2.15;;;;;;;;;;5055618;28;20021;-61
2023/06/06 08:18:50;;;;;;;4.35;2.40;;;;;;;;;;5056317;28;20086;-61
2023/06/06 08:21:16;;;;;;;8.32;2.47;;;;;;;;;;5055538;28;20506;-61
2023/06/06 08:23:42;;;;;;;3.63;2.15;;;;;;;;;;5055508;28;20383;-61
2023/06/06 08:26:08;;;;;;;3.35;2.00;;;;;;;;;;5056021;28;20029;-61
2023/06/06 08:28:34;;;;;;;4.15;2.65;;;;;;;;;;5056145;28;20028;-61
2023/06/06 08:31:02;;;;;;;3.53;2.40;;;;;;;;;;5055365;28;20025;-61
2023/06/06 08:33:28;;;;;;;3.65;2.53;;;;;;;;;;5055604;28;20017;-61
2023/06/06 08:35:54;;;;;;;3.78;2.10;;;;;;;;;;5055492;28;20053;-61
2023/06/06 08:38:20;;;;;;;3.90;2.85;;;;;;;;;;5055513;28;20063;-61
2023/06/06 08:40:46;;;;;;;2.92;2.28;;;;;;;;;;5055498;28;20071;-61
2023/06/06 08:43:15;;;;;;;2.80;2.00;;;;;;;;;;5055520;28;20033;-61
2023/06/06 08:45:43;;;;;;;3.08;2.15;;;;;;;;;;5055308;28;20086;-61
2023/06/06 08:48:10;;;;;;;3.38;2.38;;;;;;;;;;5056011;28;20032;-61
2023/06/06 08:50:36;;;;;;;4.40;2.55;;;;;;;;;;5055529;28;20032;-61
2023/06/06 08:53:04;;;;;;;3.45;2.38;;;;;;;;;;5055560;28;20561;-59
2023/06/06 08:55:37;;;;;;;3.95;2.08;;;;;;;;;;5055609;28;20223;-59
2023/06/06 08:58:06;;;;;;;3.15;2.17;;;;;;;;;;5054786;28;20028;-58
2023/06/06 09:00:32;;;;;;;4.97;2.77;;;;;;;;;;5055018;28;20021;-59
2023/06/06 09:02:59;;;;;;;3.22;1.98;;;;;;;;;;5054853;28;20252;-59
2023/06/06 09:05:25;;;;;;;2.65;1.80;;;;;;;;;;5054901;28;20029;-59
2023/06/06 09:07:55;;;;;;;2.85;2.20;;;;;;;;;;5054945;28;20029;-59
2023/06/06 09:10:21;;;;;;;4.72;2.45;;;;;;;;;;5055181;28;20467;-58
2023/06/06 09:12:48;;;;;;;4.13;2.72;;;;;;;;;;5055125;28;20044;-58
2023/06/06 09:15:14;;;;;;;3.53;2.50;;;;;;;;;;5055196;28;20455;-58
2023/06/06 09:17:41;;;;;;;3.40;2.42;;;;;;;;;;5054850;28;20025;-58
2023/06/06 09:20:26;;;;;;;3.00;2.28;;;;;;;;;;5054677;28;20021;-58
2023/06/06 09:22:57;;;;;;;3.08;2.22;;;;;;;;;;5055266;28;20104;-59
2023/06/06 09:25:24;;;;;;;3.03;2.40;;;;;;;;;;5054801;28;20090;-58
2023/06/06 09:27:57;;;;;;;3.42;2.50;;;;;;;;;;5055165;28;20021;-58
2023/06/06 09:30:27;;;;;;;4.03;2.55;;;;;;;;;;5054898;28;20036;-58
2023/06/06 09:32:53;;;;;;;2.92;2.47;;;;;;;;;;5054540;28;20502;-58
2023/06/06 09:35:20;;;;;;;3.67;2.55;;;;;;;;;;5054894;28;20091;-59
2023/06/06 09:37:46;;;;;;;3.58;2.67;;;;;;;;;;5054998;28;20022;-60
2023/06/06 09:40:13;;;;;;;5.93;2.55;;;;;;;;;;5054275;28;20079;-60
2023/06/06 09:42:40;;;;;;;3.75;2.60;;;;;;;;;;5053683;28;20036;-60
2023/06/06 09:45:16;;;;;;;3.90;2.95;;;;;;;;;;5054144;28;20079;-60
2023/06/06 09:47:45;;;;;;;2.60;1.90;;;;;;;;;;5054280;28;20029;-60
2023/06/06 09:50:12;;;;;;;7.50;3.03;;;;;;;;;;5054181;28;20017;-59
2023/06/06 09:52:38;;;;;;;3.38;2.40;;;;;;;;;;5054125;28;20029;-59
2023/06/06 09:55:07;;;;;;;3.83;2.55;;;;;;;;;;5053973;28;20410;-58
2023/06/06 09:57:35;;;;;;;5.00;2.42;;;;;;;;;;5054698;28;20352;-58
2023/06/06 10:00:10;;;;;;;3.75;2.53;;;;;;;;;;5053782;28;20017;-58
2023/06/06 10:02:40;;;;;;;4.75;2.55;;;;;;;;;;5053988;28;20108;-58
2023/06/06 10:05:07;;;;;;;4.70;2.45;;;;;;;;;;5053886;28;20039;-59
2023/06/06 10:07:33;;;;;;;3.25;2.20;;;;;;;;;;5054594;28;20055;-59
2023/06/06 10:09:59;;;;;;;3.83;2.20;;;;;;;;;;5054221;28;20025;-59
2023/06/06 10:12:27;;;;;;;3.40;2.40;;;;;;;;;;5053961;28;20029;-58
2023/06/06 10:14:53;;;;;;;3.38;2.90;;;;;;;;;;5053735;28;20084;-60
2023/06/06 10:17:20;;;;;;;4.40;2.38;;;;;;;;;;5054397;28;20102;-60
2023/06/06 10:19:45;;;;;;;4.18;2.90;;;;;;;;;;5053777;28;20064;-60
2023/06/06 10:22:11;;;;;;;3.10;2.75;;;;;;;;;;5053700;28;20102;-59
2023/06/06 10:24:37;;;;;;;4.85;2.78;;;;;;;;;;5053429;28;20036;-60
2023/06/06 10:27:09;;;;;;;3.33;2.65;;;;;;;;;;5054079;28;20078;-60
2023/06/06 10:29:45;;;;;;;3.95;2.50;;;;;;;;;;5054082;28;20426;-59
2023/06/06 10:32:15;;;;;;;3.28;2.45;;;;;;;;;;5053790;28;20371;-60
2023/06/06 10:34:42;;;;;;;3.88;2.70;;;;;;;;;;5054210;28;20025;-60
2023/06/06 10:37:18;;;;;;;5.90;3.03;;;;;;;;;;5054005;28;20025;-60
2023/06/06 10:39:47;;;;;;;5.28;3.53;;;;;;;;;;5053615;28;20079;-60
2023/06/06 10:42:14;;;;;;;6.93;3.17;;;;;;;;;;5053381;28;20083;-60
2023/06/06 10:44:46;;;;;;;3.45;2.90;;;;;;;;;;5053201;28;20029;-60
2023/06/06 10:47:21;;;;;;;3.17;2.55;;;;;;;;;;5053614;28;20467;-59
2023/06/06 10:50:06;;;;;;;3.33;2.47;;;;;;;;;;5054056;28;20035;-59
2023/06/06 10:52:40;;;;;;;3.60;2.88;;;;;;;;;;5054458;28;20029;-60
2023/06/06 10:55:14;;;;;;;3.20;2.75;;;;;;;;;;5058293;28;20069;-59
2023/06/06 10:57:59;;;;;;;3.28;2.63;;;;;;;;;;5057999;28;20467;-60
2023/06/06 11:00:25;;;;;;;4.45;3.20;;;;;;;;;;5057477;28;20021;-60
2023/06/06 11:02:58;;;;;;;3.35;2.00;;;;;;;;;;5057176;28;20516;-60
2023/06/06 11:05:24;;;;;;;4.65;2.63;;;;;;;;;;5058045;28;20067;-60
2023/06/06 11:07:50;;;;;;;4.50;2.67;;;;;;;;;;5057376;28;20114;-60
2023/06/06 11:10:22;;;;;;;6.80;2.92;;;;;;;;;;5057049;28;20116;-59
2023/06/06 11:12:49;;;;;;;3.88;2.67;;;;;;;;;;5056835;28;20025;-60
2023/06/06 11:15:26;;;;;;;2.92;2.20;;;;;;;;;;5056877;28;20059;-60
2023/06/06 11:17:59;;;;;;;3.92;2.30;;;;;;;;;;5056949;28;20025;-60
2023/06/06 11:20:26;;;;;;;4.22;2.58;;;;;;;;;;5056857;28;20463;-60
2023/06/06 11:23:01;;;;;;;4.07;2.90;;;;;;;;;;5056864;28;20103;-60
2023/06/06 11:25:28;;;;;;;3.00;2.42;;;;;;;;;;5056979;28;20109;-60
2023/06/06 11:27:55;;;;;;;3.35;2.30;;;;;;;;;;5056998;28;20021;-60
2023/06/06 11:30:23;;;;;;;4.80;2.67;;;;;;;;;;5057410;28;20046;-60
2023/06/06 11:32:49;;;;;;;3.83;2.80;;;;;;;;;;5056612;28;20037;-60
2023/06/06 11:35:17;;;;;;;4.22;2.72;;;;;;;;;;5056615;28;20024;-60
2023/06/06 11:37:43;;;;;;;2.80;2.05;;;;;;;;;;5056618;28;20063;-60
2023/06/06 11:40:09;;;;;;;5.03;2.55;;;;;;;;;;5056552;28;20100;-60
2023/06/06 11:42:35;;;;;;;3.70;2.53;;;;;;;;;;5056985;28;20020;-60
2023/06/06 11:45:02;;;;;;;5.32;3.63;;;;;;;;;;5056235;28;20047;-60
2023/06/06 11:47:31;;;;;;;2.58;2.35;;;;;;;;;;5056913;28;20025;-60
2023/06/06 11:49:57;;;;;;;3.83;2.97;;;;;;;;;;5056745;28;20021;-60
2023/06/06 11:52:23;;;;;;;5.45;2.72;;;;;;;;;;5056538;28;20414;-59
2023/06/06 11:55:13;;;;;;;3.90;2.70;;;;;;;;;;5056510;28;20374;-60
2023/06/06 11:57:40;;;;;;;6.43;3.25;;;;;;;;;;5056762;28;20049;-60
2023/06/06 12:00:15;;;;;;;3.60;2.88;;;;;;;;;;5056897;28;20297;-60
2023/06/06 12:02:41;;;;;;;4.03;2.50;;;;;;;;;;5056322;28;20387;-59
2023/06/06 12:05:20;;;;;;;4.57;3.05;;;;;;;;;;5054942;28;20037;-60
2023/06/06 12:07:47;;;;;;;4.75;3.05;;;;;;;;;;5056002;28;20025;-60
2023/06/06 12:10:21;;;;;;;3.40;2.30;;;;;;;;;;5055810;28;20036;-60
2023/06/06 12:12:48;;;;;;;2.92;2.55;;;;;;;;;;5056592;28;20025;-60
2023/06/06 12:15:14;;;;;;;3.50;2.33;;;;;;;;;;5056154;28;20041;-60
2023/06/06 12:17:41;;;;;;;8.68;3.00;;;;;;;;;;5056190;28;20072;-60
2023/06/06 12:20:07;;;;;;;3.72;2.50;;;;;;;;;;5055908;28;20400;-60
2023/06/06 12:22:34;;;;;;;3.25;2.67;;;;;;;;;;5056121;28;20086;-60
2023/06/06 12:25:00;;;;;;;4.15;2.70;;;;;;;;;;5055492;28;20029;-60
2023/06/06 12:27:27;;;;;;;3.35;2.75;;;;;;;;;;5055820;28;20037;-60
2023/06/06 12:29:54;;;;;;;5.13;3.28;;;;;;;;;;5056088;28;20116;-60
2023/06/06 12:32:21;;;;;;;4.50;3.05;;;;;;;;;;5055935;28;20075;-60
2023/06/06 12:34:48;;;;;;;9.88;2.88;;;;;;;;;;5055502;28;20044;-59
2023/06/06 12:37:14;;;;;;;3.03;2.15;;;;;;;;;;5055981;28;20025;-60
2023/06/06 12:39:40;;;;;;;2.70;2.28;;;;;;;;;;5055120;28;20029;-60
2023/06/06 12:42:19;;;;;;;3.65;3.00;;;;;;;;;;5055225;28;20108;-59
2023/06/06 12:44:49;;;;;;;2.83;2.20;;;;;;;;;;5055185;28;20024;-60
2023/06/06 12:47:17;;;;;;;3.45;2.55;;;;;;;;;;5056117;28;20071;-60
2023/06/06 12:49:43;;;;;;;7.85;3.15;;;;;;;;;;5055188;28;20021;-60
2023/06/06 12:52:09;;;;;;;4.18;3.08;;;;;;;;;;5055782;28;20017;-60
2023/06/06 12:54:40;;;;;;;3.53;2.85;;;;;;;;;;5055786;28;20021;-60
2023/06/06 12:57:06;;;;;;;3.70;2.58;;;;;;;;;;5055268;28;20049;-60
2023/06/06 12:59:32;;;;;;;4.32;2.47;;;;;;;;;;5054655;28;20391;-60
2023/06/06 13:01:58;;;;;;;4.75;2.88;;;;;;;;;;5054784;28;20100;-60
2023/06/06 13:04:26;;;;;;;3.90;2.33;;;;;;;;;;5054450;28;20056;-60
2023/06/06 13:06:52;;;;;;;3.50;2.92;;;;;;;;;;5054924;28;20348;-60
2023/06/06 13:09:19;;;;;;;4.40;2.97;;;;;;;;;;5054825;28;20028;-60
2023/06/06 13:11:45;;;;;;;6.28;2.67;;;;;;;;;;5054778;28;20029;-61
2023/06/06 13:14:13;;;;;;;2.85;2.55;;;;;;;;;;5054622;28;20098;-61
2023/06/06 13:16:39;;;;;;;3.78;2.53;;;;;;;;;;5054647;28;20375;-61
2023/06/06 13:19:05;;;;;;;4.53;3.35;;;;;;;;;;5054593;28;20029;-61
2023/06/06 13:21:31;;;;;;;3.88;2.40;;;;;;;;;;5054488;28;20040;-61
2023/06/06 13:23:57;;;;;;;3.42;2.33;;;;;;;;;;5054546;28;20025;-61
2023/06/06 13:26:23;;;;;;;3.25;2.60;;;;;;;;;;5054664;28;20036;-61
2023/06/06 13:28:49;;;;;;;3.90;2.60;;;;;;;;;;5054473;28;20033;-61
2023/06/06 13:31:15;;;;;;;3.53;2.58;;;;;;;;;;5054462;28;20044;-61
2023/06/06 13:33:41;;;;;;;3.53;2.83;;;;;;;;;;5054838;28;20017;-61
2023/06/06 13:36:07;;;;;;;3.20;2.78;;;;;;;;;;5054627;28;20021;-61
2023/06/06 13:38:33;;;;;;;2.95;2.65;;;;;;;;;;5054539;28;20025;-61
2023/06/06 13:40:59;;;;;;;4.30;3.33;;;;;;;;;;5054235;28;20032;-61
2023/06/06 13:43:25;;;;;;;3.20;2.53;;;;;;;;;;5054654;28;20044;-61
2023/06/06 13:45:51;;;;;;;4.45;3.10;;;;;;;;;;5054697;28;20439;-61
2023/06/06 13:48:17;;;;;;;3.80;2.60;;;;;;;;;;5054044;28;20064;-61
2023/06/06 13:50:43;;;;;;;3.78;2.92;;;;;;;;;;5054264;28;20021;-61
2023/06/06 13:53:09;;;;;;;3.88;2.67;;;;;;;;;;5054150;28;20017;-61
2023/06/06 13:55:35;;;;;;;4.05;2.53;;;;;;;;;;5054428;28;20117;-61
2023/06/06 13:58:05;;;;;;;3.40;2.72;;;;;;;;;;5053706;28;20500;-61
2023/06/06 14:00:32;;;;;;;3.75;2.70;;;;;;;;;;5053770;28;20025;-61
2023/06/06 14:02:59;;;;;;;3.50;2.55;;;;;;;;;;5053443;28;20037;-61
2023/06/06 14:05:26;;;;;;;3.88;3.00;;;;;;;;;;5053467;28;20037;-61
2023/06/06 14:07:52;;;;;;;3.40;2.58;;;;;;;;;;5054129;28;20036;-61
2023/06/06 14:10:19;;;;;;;4.18;2.83;;;;;;;;;;5053882;28;20029;-61
2023/06/06 14:12:47;;;;;;;4.28;2.50;;;;;;;;;;5053824;28;20415;-61
2023/06/06 14:15:13;;;;;;;3.53;2.30;;;;;;;;;;5053862;28;20391;-61
2023/06/06 14:17:39;;;;;;;4.53;3.47;;;;;;;;;;5054370;28;20503;-61
2023/06/06 14:20:11;;;;;;;3.22;2.83;;;;;;;;;;5053490;28;20036;-61
2023/06/06 14:22:39;;;;;;;3.25;2.50;;;;;;;;;;5053598;28;20031;-61
2023/06/06 14:25:06;;;;;;;3.35;2.67;;;;;;;;;;5053654;28;20033;-61
2023/06/06 14:27:32;;;;;;;3.85;2.45;;;;;;;;;;5052874;28;20029;-61
2023/06/06 14:29:58;;;;;;;4.18;3.13;;;;;;;;;;5053801;28;20335;-61
2023/06/06 14:32:28;;;;;;;5.68;2.75;;;;;;;;;;5053288;28;20029;-61
2023/06/06 14:34:55;;;;;;;3.47;2.35;;;;;;;;;;5053275;28;20082;-61
2023/06/06 14:37:21;;;;;;;4.43;3.25;;;;;;;;;;5054106;28;20402;-61
2023/06/06 14:39:46;;;;;;;2.97;2.40;;;;;;;;;;5053774;28;20119;-61
2023/06/06 14:42:12;;;;;;;2.88;2.25;;;;;;;;;;5053272;28;20494;-61
2023/06/06 14:44:38;;;;;;;3.25;2.22;;;;;;;;;;5053921;28;20332;-61